KBLI/BLI METAR and TAF weather

Enter ICAO airport designator
Station Type Date Time Source
KBLI METAR 2019/02/23 01:53 UTC NOAA

KBLI 230153Z 17003KT 10SM SCT022 03/01 A2991 RMK AO2 SLP136 T00330006


Station Type Date Time Source
KBLI Decoded METAR 2019/02/23 01:53 UTC NOAA

BELLINGHAM INTERNATIONAL AIRPORT, WA, United States (KBLI) 48-48N 122-32W 50M
Feb 22, 2019 - 08:53 PM EST / 2019.02.23 0153 UTC
Wind: from the S (170 degrees) at 3 MPH (3 KT):0
Visibility: 10 mile(s):0
Sky conditions: partly cloudy
Temperature: 37.9 F (3.3 C)
Dew Point: 33.1 F (0.6 C)
Relative Humidity: 82%
Pressure (altimeter): 29.91 in. Hg (1012 hPa)
ob: KBLI 230153Z 17003KT 10SM SCT022 03/01 A2991 RMK AO2 SLP136 T00330006
cycle: 2

Station Type Date Time Source
KBLI TAF 2019/02/22 18:51 UTC NOAA

TAF KBLI 221749Z 2218/2318 15018G25KT P6SM BKN030 OVC080
FM221900 17015G25KT P6SM -RA BKN020 OVC035
FM222100 18016G28KT P6SM -RA OVC020
FM230000 19008KT P6SM VCSH SCT025 BKN050


Example: see airport list